createdAt,value
2018-04-08T00:00:16.384Z,91.50
2018-04-08T00:02:44.141Z,91.50
2018-04-08T00:05:11.806Z,91.70
2018-04-08T00:07:39.569Z,91.60
2018-04-08T00:10:07.482Z,91.70
2018-04-08T00:12:35.222Z,92.00
2018-04-08T00:15:03.996Z,91.90
2018-04-08T00:17:31.865Z,91.80
2018-04-08T00:19:59.426Z,91.90
2018-04-08T00:22:26.997Z,91.90
2018-04-08T00:24:55.064Z,91.10
2018-04-08T00:27:22.629Z,91.20
2018-04-08T00:29:50.589Z,91.20
2018-04-08T00:32:18.661Z,91.60
2018-04-08T00:34:46.738Z,91.30
2018-04-08T00:37:14.205Z,92.30
2018-04-08T00:39:42.676Z,92.10
2018-04-08T00:42:10.749Z,92.00
2018-04-08T00:44:38.414Z,92.20
2018-04-08T00:47:06.078Z,91.00
2018-04-08T00:49:33.945Z,91.90
2018-04-08T00:52:02.322Z,93.00
2018-04-08T00:54:37.985Z,93.00
2018-04-08T00:57:05.743Z,92.00
2018-04-08T00:59:33.501Z,92.20
2018-04-08T01:02:01.178Z,92.30
2018-04-08T01:04:28.847Z,93.30
2018-04-08T01:06:57.158Z,92.20
2018-04-08T01:09:25.333Z,92.20
2018-04-08T01:11:53.974Z,93.30
2018-04-08T01:14:21.534Z,93.30
2018-04-08T01:16:49.293Z,93.30
2018-04-08T01:19:16.857Z,93.70
2018-04-08T01:21:46.154Z,95.20
2018-04-08T01:24:13.817Z,95.20
2018-04-08T01:26:41.380Z,94.20
2018-04-08T01:29:09.349Z,94.50
2018-04-08T01:31:36.917Z,94.60
2018-04-08T01:34:04.683Z,94.00
2018-04-08T01:36:32.657Z,94.20
2018-04-08T01:39:00.113Z,94.60
2018-04-08T01:41:27.682Z,95.30
2018-04-08T01:43:56.252Z,95.90
2018-04-08T01:46:23.725Z,95.60
2018-04-08T01:48:52.094Z,96.00
2018-04-08T01:51:19.858Z,96.00
2018-04-08T01:53:47.522Z,95.00
2018-04-08T01:56:15.064Z,95.30
2018-04-08T01:58:42.662Z,94.90
2018-04-08T02:01:11.049Z,94.30
2018-04-08T02:03:39.405Z,94.90
2018-04-08T02:06:07.170Z,95.00
2018-04-08T02:08:34.730Z,94.80
2018-04-08T02:11:02.290Z,95.30
2018-04-08T02:13:30.358Z,95.30
2018-04-08T02:15:57.897Z,94.60
2018-04-08T02:18:25.378Z,94.70
2018-04-08T02:20:53.243Z,94.90
2018-04-08T02:23:20.806Z,95.70
2018-04-08T02:25:48.476Z,94.90
2018-04-08T02:28:16.235Z,95.40
2018-04-08T02:30:43.897Z,95.20
2018-04-08T02:33:11.559Z,95.90
2018-04-08T02:35:39.526Z,96.00
2018-04-08T02:38:07.073Z,95.90
2018-04-08T02:40:34.636Z,95.90
2018-04-08T02:43:02.315Z,96.30
2018-04-08T02:45:29.977Z,96.10
2018-04-08T02:47:57.647Z,96.60
2018-04-08T02:50:26.223Z,96.50
2018-04-08T02:52:53.890Z,96.20
2018-04-08T02:55:21.545Z,96.20
2018-04-08T02:57:49.422Z,96.20
2018-04-08T03:00:17.083Z,96.40
2018-04-08T03:02:44.848Z,97.10
2018-04-08T03:05:12.711Z,96.80
2018-04-08T03:07:40.378Z,97.20
2018-04-08T03:10:08.138Z,96.90
2018-04-08T03:12:36.001Z,96.90
2018-04-08T03:15:03.871Z,96.60
2018-04-08T03:17:31.537Z,96.70
2018-04-08T03:19:59.298Z,96.90
2018-04-08T03:22:26.854Z,97.30
2018-04-08T03:24:54.326Z,97.80
2018-04-08T03:27:22.037Z,97.60
2018-04-08T03:29:49.849Z,97.30
2018-04-08T03:32:17.438Z,97.70
2018-04-08T03:34:44.972Z,98.00
2018-04-08T03:37:12.630Z,97.90
2018-04-08T03:39:40.498Z,98.20
2018-04-08T03:42:09.693Z,98.40
2018-04-08T03:44:37.358Z,98.30
2018-04-08T03:47:05.018Z,98.10
2018-04-08T03:49:32.681Z,98.60
2018-04-08T03:52:00.138Z,98.60
2018-04-08T03:54:27.710Z,98.30
2018-04-08T03:56:55.488Z,98.50
2018-04-08T03:59:23.850Z,98.90
2018-04-08T04:01:51.409Z,98.80
2018-04-08T04:04:19.273Z,98.80
2018-04-08T04:06:46.846Z,98.90
2018-04-08T04:09:14.602Z,99.30
2018-04-08T04:11:42.366Z,99.20
2018-04-08T04:14:10.037Z,99.50
2018-04-08T04:16:39.404Z,99.10
2018-04-08T04:19:18.977Z,99.10
2018-04-08T04:21:58.518Z,99.70
2018-04-08T04:24:37.859Z,99.40
2018-04-08T04:27:05.526Z,99.50
2018-04-08T04:29:33.077Z,99.90
2018-04-08T04:32:00.542Z,99.80
2018-04-08T04:34:28.304Z,99.70
2018-04-08T04:36:55.774Z,99.60
2018-04-08T04:39:24.248Z,99.10
2018-04-08T04:41:52.113Z,99.10
2018-04-08T04:44:19.769Z,99.30
2018-04-08T04:46:47.348Z,99.40
2018-04-08T04:49:15.513Z,99.20
2018-04-08T04:51:43.169Z,99.30
2018-04-08T04:54:10.755Z,99.40
2018-04-08T04:56:39.225Z,99.30
2018-04-08T04:59:07.593Z,99.20
2018-04-08T05:01:35.067Z,99.00
2018-04-08T05:04:03.943Z,99.00
2018-04-08T05:06:31.502Z,99.00
2018-04-08T05:08:59.046Z,99.10
2018-04-08T05:11:26.825Z,99.10
2018-04-08T05:13:54.384Z,99.30
2018-04-08T05:16:21.950Z,99.30
2018-04-08T05:18:49.926Z,99.10
2018-04-08T05:21:18.198Z,99.40
2018-04-08T05:23:45.749Z,99.40
2018-04-08T05:26:13.274Z,99.00
2018-04-08T05:28:40.757Z,98.80
2018-04-08T05:31:08.232Z,98.60
2018-04-08T05:33:36.807Z,98.70
2018-04-08T05:36:04.461Z,98.70
2018-04-08T05:38:32.029Z,98.40
2018-04-08T05:41:00.541Z,97.80
2018-04-08T05:43:28.796Z,98.30
2018-04-08T05:45:57.057Z,98.50
2018-04-08T05:48:24.929Z,98.40
2018-04-08T05:50:52.687Z,98.00
2018-04-08T05:53:20.246Z,97.70
2018-04-08T05:55:48.318Z,97.30
2018-04-08T05:58:15.973Z,96.70
2018-04-08T06:00:43.647Z,95.90
2018-04-08T06:03:12.017Z,95.10
2018-04-08T06:05:39.474Z,94.90
2018-04-08T06:08:07.043Z,94.90
2018-04-08T06:10:35.614Z,94.50
2018-04-08T06:13:03.194Z,94.50
2018-04-08T06:15:31.758Z,93.10
2018-04-08T06:17:59.526Z,93.10
2018-04-08T06:20:27.308Z,91.90
2018-04-08T06:22:55.566Z,91.00
2018-04-08T06:25:23.882Z,90.70
2018-04-08T06:27:51.358Z,90.70
2018-04-08T06:30:18.884Z,90.10
2018-04-08T06:32:46.521Z,90.00
2018-04-08T06:35:14.894Z,88.60
2018-04-08T06:37:42.510Z,87.90
2018-04-08T06:40:10.076Z,87.80
2018-04-08T06:42:37.547Z,90.10
2018-04-08T06:45:05.021Z,89.90
2018-04-08T06:47:32.788Z,89.90
2018-04-08T06:50:00.251Z,88.40
2018-04-08T06:52:27.821Z,89.60
2018-04-08T06:54:56.287Z,87.20
2018-04-08T06:57:24.278Z,87.10
2018-04-08T06:59:52.634Z,87.80
2018-04-08T07:02:20.298Z,87.90
2018-04-08T07:04:47.956Z,88.00
2018-04-08T07:07:15.514Z,90.10
2018-04-08T07:09:43.073Z,87.80
2018-04-08T07:12:11.050Z,87.30
2018-04-08T07:14:38.710Z,88.00
2018-04-08T07:17:06.468Z,86.80
2018-04-08T07:19:34.433Z,86.40
2018-04-08T07:22:02.184Z,86.80
2018-04-08T07:24:29.758Z,86.50
2018-04-08T07:26:57.638Z,85.90
2018-04-08T07:29:25.879Z,82.90
2018-04-08T07:31:53.557Z,82.90
2018-04-08T07:34:21.327Z,81.20
2018-04-08T07:36:48.895Z,77.80
2018-04-08T07:39:17.278Z,72.80
2018-04-08T07:41:45.858Z,71.50
2018-04-08T07:44:15.302Z,69.70
2018-04-08T07:46:43.510Z,68.70
2018-04-08T07:49:11.066Z,68.70
2018-04-08T07:51:38.657Z,64.00
2018-04-08T07:54:07.864Z,57.50
2018-04-08T07:56:36.441Z,58.50
2018-04-08T07:59:03.922Z,58.20
2018-04-08T08:01:32.523Z,56.50
2018-04-08T08:04:00.649Z,56.40
2018-04-08T08:06:28.422Z,53.40
2018-04-08T08:08:55.970Z,51.60
2018-04-08T08:11:23.538Z,52.10
2018-04-08T08:13:51.236Z,51.50
2018-04-08T08:16:18.862Z,53.00
2018-04-08T08:18:47.439Z,51.40
2018-04-08T08:21:15.021Z,51.30
2018-04-08T08:23:43.399Z,52.60
2018-04-08T08:26:11.754Z,53.30
2018-04-08T08:28:39.817Z,53.20
2018-04-08T08:31:07.286Z,54.10
2018-04-08T08:33:34.941Z,53.80
2018-04-08T08:36:02.422Z,54.00
2018-04-08T08:38:30.696Z,56.20
2018-04-08T08:40:58.541Z,56.10
2018-04-08T08:43:26.099Z,59.70
2018-04-08T08:45:53.585Z,55.60
2018-04-08T08:48:22.044Z,54.40
2018-04-08T08:50:50.282Z,56.40
2018-04-08T08:53:17.756Z,55.60
2018-04-08T08:55:45.438Z,51.50
2018-04-08T08:58:13.202Z,47.80
2018-04-08T09:00:40.794Z,46.00
2018-04-08T09:03:08.321Z,48.70
2018-04-08T09:05:35.834Z,47.20
2018-04-08T09:08:03.309Z,48.90
2018-04-08T09:10:30.778Z,47.70
2018-04-08T09:12:58.552Z,49.70
2018-04-08T09:15:26.037Z,51.10
2018-04-08T09:17:53.525Z,48.40
2018-04-08T09:20:22.670Z,49.60
2018-04-08T09:23:00.063Z,48.80
2018-04-08T09:25:28.262Z,48.00
2018-04-08T09:27:55.902Z,48.60
2018-04-08T09:30:24.894Z,44.50
2018-04-08T09:32:52.558Z,44.30
2018-04-08T09:35:20.134Z,48.30
2018-04-08T09:37:48.394Z,48.20
2018-04-08T09:40:15.949Z,48.00
2018-04-08T09:42:43.458Z,47.70
2018-04-08T09:45:11.073Z,46.00
2018-04-08T09:47:39.857Z,49.30
2018-04-08T09:50:07.620Z,48.60
2018-04-08T09:52:35.406Z,48.20
2018-04-08T09:55:04.020Z,46.10
2018-04-08T09:57:49.142Z,47.20
2018-04-08T10:00:22.634Z,47.10
2018-04-08T10:02:55.925Z,46.20
2018-04-08T10:05:23.847Z,47.10
2018-04-08T10:07:51.391Z,46.00
2018-04-08T10:10:18.873Z,43.90
2018-04-08T10:12:46.578Z,45.40
2018-04-08T10:15:14.159Z,43.70
2018-04-08T10:17:43.032Z,42.30
2018-04-08T10:20:10.505Z,42.30
2018-04-08T10:22:38.754Z,43.10
2018-04-08T10:25:06.422Z,42.90
2018-04-08T10:27:34.391Z,42.50
2018-04-08T10:30:01.863Z,41.10
2018-04-08T10:32:30.435Z,42.40
2018-04-08T10:34:58.713Z,39.80
2018-04-08T10:37:27.081Z,41.30
2018-04-08T10:39:54.743Z,41.10
2018-04-08T10:42:24.110Z,42.80
2018-04-08T10:44:51.646Z,43.50
2018-04-08T10:47:19.215Z,38.60
2018-04-08T10:49:46.682Z,43.90
2018-04-08T10:52:14.486Z,37.30
2018-04-08T10:54:42.245Z,36.00
2018-04-08T10:57:10.022Z,40.20
2018-04-08T10:59:38.267Z,36.00
2018-04-08T11:02:05.738Z,35.80
2018-04-08T11:04:33.293Z,38.00
2018-04-08T11:07:00.874Z,38.70
2018-04-08T11:09:29.109Z,39.70
2018-04-08T11:11:56.763Z,39.30
2018-04-08T11:14:24.266Z,36.10
2018-04-08T11:16:53.032Z,38.00
2018-04-08T11:19:20.517Z,37.40
2018-04-08T11:21:48.753Z,34.60
2018-04-08T11:24:16.319Z,34.50
2018-04-08T11:26:44.554Z,36.40
2018-04-08T11:29:12.533Z,36.40
2018-04-08T11:31:40.586Z,36.10
2018-04-08T11:34:08.058Z,32.70
2018-04-08T11:36:35.525Z,33.90
2018-04-08T11:39:04.151Z,35.10
2018-04-08T11:41:31.811Z,34.90
2018-04-08T11:43:59.373Z,35.90
2018-04-08T11:46:27.065Z,35.70
2018-04-08T11:48:54.698Z,35.20
2018-04-08T11:51:22.282Z,34.50
2018-04-08T11:53:50.014Z,34.90
2018-04-08T11:56:17.580Z,34.10
2018-04-08T11:58:45.347Z,33.50
2018-04-08T12:01:12.818Z,34.80
2018-04-08T12:03:41.114Z,34.30
2018-04-08T12:06:08.694Z,34.20
2018-04-08T12:08:36.270Z,34.00
2018-04-08T12:11:03.737Z,34.80
2018-04-08T12:13:32.041Z,33.30
2018-04-08T12:16:00.623Z,34.50
2018-04-08T12:18:28.903Z,32.90
2018-04-08T12:20:57.173Z,34.40
2018-04-08T12:23:24.816Z,34.00
2018-04-08T12:25:52.287Z,34.60
2018-04-08T12:28:19.749Z,34.70
2018-04-08T12:30:48.134Z,34.60
2018-04-08T12:33:15.694Z,32.60
2018-04-08T12:35:43.971Z,32.40
2018-04-08T12:38:12.552Z,33.90
2018-04-08T12:40:40.041Z,33.20
2018-04-08T12:43:07.543Z,33.40
2018-04-08T12:45:35.010Z,34.50
2018-04-08T12:48:02.782Z,33.20
2018-04-08T12:50:30.361Z,29.10
2018-04-08T12:52:58.730Z,32.10
2018-04-08T12:55:27.197Z,32.00
2018-04-08T12:57:54.861Z,32.00
2018-04-08T13:00:22.377Z,31.30
2018-04-08T13:02:49.990Z,31.00
2018-04-08T13:05:18.226Z,30.50
2018-04-08T13:07:45.954Z,30.40
2018-04-08T13:10:14.162Z,31.70
2018-04-08T13:12:41.646Z,31.70
2018-04-08T13:15:09.310Z,30.00
2018-04-08T13:17:36.885Z,29.90
2018-04-08T13:20:05.118Z,31.20
2018-04-08T13:22:32.914Z,31.10
2018-04-08T13:25:00.470Z,32.40
2018-04-08T13:27:28.002Z,34.60
2018-04-08T13:29:55.791Z,31.80
2018-04-08T13:32:24.193Z,37.30
2018-04-08T13:34:52.753Z,35.50
2018-04-08T13:37:20.329Z,35.50
2018-04-08T13:39:48.606Z,35.00
2018-04-08T13:42:17.068Z,37.10
2018-04-08T13:44:44.730Z,36.90
2018-04-08T13:47:12.199Z,36.30
2018-04-08T13:49:40.670Z,35.70
2018-04-08T13:52:08.147Z,35.60
2018-04-08T13:54:36.386Z,36.50
2018-04-08T13:57:04.058Z,36.50
2018-04-08T13:59:31.521Z,38.30
2018-04-08T14:01:59.094Z,38.60
2018-04-08T14:04:27.662Z,37.10
2018-04-08T14:06:55.138Z,37.10
2018-04-08T14:09:23.601Z,37.90
2018-04-08T14:11:51.073Z,37.90
2018-04-08T14:14:19.437Z,34.50
2018-04-08T14:16:48.118Z,34.90
2018-04-08T14:19:15.891Z,34.30
2018-04-08T14:21:44.156Z,37.60
2018-04-08T14:24:12.122Z,37.60
2018-04-08T14:26:39.686Z,38.20
2018-04-08T14:29:07.610Z,35.70
2018-04-08T14:31:35.214Z,34.50
2018-04-08T14:34:03.534Z,35.20
2018-04-08T14:36:31.097Z,35.20
2018-04-08T14:38:58.814Z,35.10
2018-04-08T14:41:26.470Z,35.80
2018-04-08T14:43:54.053Z,35.00
2018-04-08T14:46:22.617Z,35.20
2018-04-08T14:48:50.173Z,35.20
2018-04-08T14:51:17.643Z,36.50
2018-04-08T14:53:46.218Z,33.90
2018-04-08T14:56:14.282Z,33.80
2018-04-08T14:58:41.955Z,35.00
2018-04-08T15:01:10.190Z,34.60
2018-04-08T15:03:37.985Z,34.70
2018-04-08T15:06:05.562Z,35.30
2018-04-08T15:08:34.241Z,36.40
2018-04-08T15:11:02.478Z,36.60
2018-04-08T15:13:29.953Z,36.60
2018-04-08T15:15:59.858Z,38.10
2018-04-08T15:18:27.437Z,38.20
2018-04-08T15:20:55.097Z,37.90
2018-04-08T15:23:22.858Z,39.40
2018-04-08T15:25:50.738Z,41.00
2018-04-08T15:28:18.973Z,39.10
2018-04-08T15:30:46.786Z,39.10
2018-04-08T15:33:15.963Z,40.60
2018-04-08T15:35:43.439Z,40.50
2018-04-08T15:38:11.701Z,41.00
2018-04-08T15:40:39.341Z,41.00
2018-04-08T15:43:06.834Z,40.90
2018-04-08T15:45:35.098Z,44.00
2018-04-08T15:48:03.170Z,44.00
2018-04-08T15:50:30.926Z,42.90
2018-04-08T15:52:58.705Z,42.00
2018-04-08T15:55:27.173Z,43.50
2018-04-08T15:57:55.433Z,44.40
2018-04-08T16:00:24.470Z,44.00
2018-04-08T16:02:51.973Z,44.00
2018-04-08T16:05:19.462Z,45.30
2018-04-08T16:07:47.077Z,43.50
2018-04-08T16:10:14.577Z,44.70
2018-04-08T16:12:42.337Z,47.00
2018-04-08T16:15:09.873Z,46.70
2018-04-08T16:17:37.345Z,46.90
2018-04-08T16:20:04.921Z,46.10
2018-04-08T16:22:33.618Z,48.80
2018-04-08T16:25:01.988Z,49.70
2018-04-08T16:27:32.826Z,49.80
2018-04-08T16:30:01.202Z,51.30
2018-04-08T16:32:29.727Z,51.50
2018-04-08T16:34:57.358Z,53.50
2018-04-08T16:37:25.734Z,55.40
2018-04-08T16:39:53.216Z,55.40
2018-04-08T16:42:21.450Z,54.40
2018-04-08T16:44:49.453Z,54.50
2018-04-08T16:47:17.013Z,55.30
2018-04-08T16:49:45.835Z,55.20
2018-04-08T16:52:14.086Z,54.90
2018-04-08T16:54:41.803Z,55.80
2018-04-08T16:57:10.314Z,55.30
2018-04-08T16:59:38.843Z,57.00
2018-04-08T17:02:10.444Z,55.90
2018-04-08T17:04:37.956Z,58.60
2018-04-08T17:07:05.762Z,56.70
2018-04-08T17:09:33.959Z,59.30
2018-04-08T17:12:01.514Z,57.90
2018-04-08T17:14:29.082Z,58.60
2018-04-08T17:16:57.040Z,58.50
2018-04-08T17:19:24.510Z,58.40
2018-04-08T17:21:52.743Z,59.50
2018-04-08T17:24:20.269Z,59.40
2018-04-08T17:26:47.739Z,61.50
2018-04-08T17:29:15.261Z,61.30
2018-04-08T17:31:44.546Z,59.20
2018-04-08T17:34:12.110Z,59.10
2018-04-08T17:36:40.377Z,63.80
2018-04-08T17:39:08.134Z,63.10
2018-04-08T17:41:35.605Z,63.30
2018-04-08T17:44:03.074Z,65.10
2018-04-08T17:46:31.366Z,63.50
2018-04-08T17:48:58.858Z,63.30
2018-04-08T17:51:26.350Z,68.30
2018-04-08T17:53:54.330Z,65.70
2018-04-08T17:56:21.910Z,66.70
2018-04-08T17:58:50.213Z,68.50
2018-04-08T18:01:18.081Z,68.40
2018-04-08T18:03:45.602Z,68.90
2018-04-08T18:06:13.834Z,73.40
2018-04-08T18:08:41.621Z,73.30
2018-04-08T18:11:10.594Z,74.10
2018-04-08T18:13:38.153Z,74.00
2018-04-08T18:16:07.763Z,75.50
2018-04-08T18:18:35.657Z,78.10
2018-04-08T18:21:03.683Z,80.50
2018-04-08T18:23:31.602Z,80.10
2018-04-08T18:25:59.474Z,77.50
2018-04-08T18:28:27.620Z,74.50
2018-04-08T18:30:55.560Z,75.30
2018-04-08T18:33:23.170Z,75.00
2018-04-08T18:35:50.633Z,76.80
2018-04-08T18:38:18.611Z,78.30
2018-04-08T18:40:46.109Z,77.90
2018-04-08T18:43:14.034Z,79.30
2018-04-08T18:45:41.831Z,79.40
2018-04-08T18:48:09.295Z,80.80
2018-04-08T18:50:36.909Z,81.10
2018-04-08T18:53:06.267Z,80.60
2018-04-08T18:55:33.893Z,81.40
2018-04-08T18:58:01.452Z,82.80
2018-04-08T19:00:29.091Z,82.90
2018-04-08T19:02:57.015Z,83.00
2018-04-08T19:05:25.253Z,84.90
2018-04-08T19:07:52.938Z,84.90
2018-04-08T19:10:21.584Z,83.50
2018-04-08T19:12:49.925Z,83.90
2018-04-08T19:15:21.154Z,83.50
2018-04-08T19:17:54.471Z,83.50
2018-04-08T19:20:22.743Z,84.30
2018-04-08T19:22:51.474Z,84.60
2018-04-08T19:25:19.425Z,84.50
2018-04-08T19:27:47.048Z,85.40
2018-04-08T19:30:21.530Z,86.80
2018-04-08T19:32:49.229Z,88.70
2018-04-08T19:35:17.153Z,88.30
2018-04-08T19:37:44.982Z,88.80
2018-04-08T19:40:13.870Z,90.20
2018-04-08T19:42:41.726Z,89.70
2018-04-08T19:45:09.293Z,90.60
2018-04-08T19:47:36.864Z,90.60
2018-04-08T19:50:04.626Z,90.20
2018-04-08T19:52:32.274Z,91.00
2018-04-08T19:55:05.610Z,91.20
2018-04-08T19:57:33.965Z,90.20
2018-04-08T20:00:01.490Z,90.00
2018-04-08T20:02:29.039Z,90.10
2018-04-08T20:04:56.539Z,90.40
2018-04-08T20:07:24.431Z,90.50
2018-04-08T20:09:52.694Z,91.20
2018-04-08T20:12:21.962Z,91.20
2018-04-08T20:14:49.759Z,91.40
2018-04-08T20:17:17.613Z,90.80
2018-04-08T20:19:45.073Z,89.90
2018-04-08T20:22:12.858Z,90.80
2018-04-08T20:24:41.243Z,90.80
2018-04-08T20:27:09.626Z,88.60
2018-04-08T20:29:37.972Z,90.90
2018-04-08T20:32:05.462Z,90.90
2018-04-08T20:34:33.722Z,90.90
2018-04-08T20:37:01.612Z,90.80
2018-04-08T20:39:29.108Z,91.00
2018-04-08T20:41:56.602Z,91.30
2018-04-08T20:44:24.253Z,91.40
2018-04-08T20:46:51.787Z,91.30
2018-04-08T20:49:19.433Z,91.20
2018-04-08T20:51:47.658Z,91.00
2018-04-08T20:54:15.727Z,90.90
2018-04-08T20:56:43.396Z,91.10
2018-04-08T20:59:12.075Z,91.40
2018-04-08T21:01:39.740Z,91.30
2018-04-08T21:04:07.214Z,90.90
2018-04-08T21:06:35.708Z,91.00
2018-04-08T21:09:03.329Z,91.00
2018-04-08T21:11:30.994Z,91.80
2018-04-08T21:13:58.655Z,90.80
2018-04-08T21:16:26.216Z,88.30
2018-04-08T21:18:54.590Z,90.40
2018-04-08T21:21:22.274Z,90.90
2018-04-08T21:23:50.735Z,91.10
2018-04-08T21:26:18.385Z,91.10
2018-04-08T21:28:45.958Z,90.30
2018-04-08T21:31:13.806Z,91.50
2018-04-08T21:33:41.474Z,92.40
2018-04-08T21:36:09.142Z,91.00
2018-04-08T21:38:37.016Z,91.70
2018-04-08T21:41:04.570Z,91.40
2018-04-08T21:43:32.039Z,92.00
2018-04-08T21:46:00.502Z,91.20
2018-04-08T21:48:28.070Z,91.10
2018-04-08T21:50:55.646Z,90.90
2018-04-08T21:53:24.215Z,89.70
2018-04-08T21:55:52.682Z,91.80
2018-04-08T21:58:20.372Z,91.70
2018-04-08T22:00:48.115Z,91.90
2018-04-08T22:03:15.775Z,92.10
2018-04-08T22:05:43.354Z,92.40
2018-04-08T22:08:11.705Z,92.30
2018-04-08T22:10:39.270Z,92.30
2018-04-08T22:13:06.810Z,91.90
2018-04-08T22:15:34.590Z,92.00
2018-04-08T22:18:02.149Z,91.60
2018-04-08T22:20:29.655Z,91.10
2018-04-08T22:22:57.294Z,91.20
2018-04-08T22:25:26.257Z,90.50
2018-04-08T22:27:54.622Z,90.80
2018-04-08T22:30:22.159Z,90.80
2018-04-08T22:32:49.966Z,91.00
2018-04-08T22:35:17.548Z,91.90
2018-04-08T22:37:46.213Z,92.10
2018-04-08T22:40:13.694Z,92.10
2018-04-08T22:42:42.155Z,91.70
2018-04-08T22:45:09.813Z,91.60
2018-04-08T22:47:37.490Z,91.80
2018-04-08T22:50:05.564Z,91.10
2018-04-08T22:52:34.045Z,91.70
2018-04-08T22:55:01.911Z,91.70
2018-04-08T22:57:29.514Z,92.90
2018-04-08T22:59:57.042Z,92.70
2018-04-08T23:02:25.411Z,92.70
2018-04-08T23:04:53.182Z,92.80
2018-04-08T23:07:20.747Z,93.10
2018-04-08T23:09:48.297Z,92.80
2018-04-08T23:12:16.288Z,92.80
2018-04-08T23:14:43.933Z,93.70
2018-04-08T23:17:11.497Z,93.70
2018-04-08T23:19:39.570Z,93.80
2018-04-08T23:22:07.536Z,93.90
2018-04-08T23:24:35.207Z,93.50
2018-04-08T23:27:02.768Z,93.50
2018-04-08T23:29:30.353Z,93.30
2018-04-08T23:31:58.993Z,93.30
2018-04-08T23:34:26.561Z,93.30
2018-04-08T23:36:54.245Z,93.70
2018-04-08T23:39:21.820Z,93.40
2018-04-08T23:41:50.091Z,93.10
2018-04-08T23:44:18.561Z,93.50
2018-04-08T23:46:46.222Z,93.30
2018-04-08T23:49:14.122Z,93.30
2018-04-08T23:51:42.449Z,93.60
2018-04-08T23:54:09.954Z,93.60
2018-04-08T23:56:38.614Z,94.70
2018-04-08T23:59:06.178Z,94.30
